sensor_id;sensor_type;location;lat;lon;timestamp;temperature;humidity
19248;DHT22;9758;48.640;8.148;2022-08-03T00:01:40;26.00;35.40
19248;DHT22;9758;48.640;8.148;2022-08-03T00:04:07;26.00;35.40
19248;DHT22;9758;48.640;8.148;2022-08-03T00:06:35;26.00;35.50
19248;DHT22;9758;48.640;8.148;2022-08-03T00:09:02;26.00;35.60
19248;DHT22;9758;48.640;8.148;2022-08-03T00:11:29;26.00;35.50
19248;DHT22;9758;48.640;8.148;2022-08-03T00:14:12;25.90;35.50
19248;DHT22;9758;48.640;8.148;2022-08-03T00:16:39;25.90;35.60
19248;DHT22;9758;48.640;8.148;2022-08-03T00:19:06;25.90;35.50
19248;DHT22;9758;48.640;8.148;2022-08-03T00:21:33;25.90;35.60
19248;DHT22;9758;48.640;8.148;2022-08-03T00:23:59;25.90;35.60
19248;DHT22;9758;48.640;8.148;2022-08-03T00:26:26;25.80;35.60
19248;DHT22;9758;48.640;8.148;2022-08-03T00:28:53;25.80;35.60
19248;DHT22;9758;48.640;8.148;2022-08-03T00:31:21;25.80;35.60
19248;DHT22;9758;48.640;8.148;2022-08-03T00:33:48;25.80;35.60
19248;DHT22;9758;48.640;8.148;2022-08-03T00:36:15;25.80;35.60
19248;DHT22;9758;48.640;8.148;2022-08-03T00:38:41;25.80;35.60
19248;DHT22;9758;48.640;8.148;2022-08-03T00:41:08;25.80;35.70
19248;DHT22;9758;48.640;8.148;2022-08-03T00:43:35;25.80;35.70
19248;DHT22;9758;48.640;8.148;2022-08-03T00:46:02;25.80;35.70
19248;DHT22;9758;48.640;8.148;2022-08-03T00:48:30;25.80;35.70
19248;DHT22;9758;48.640;8.148;2022-08-03T00:50:57;25.70;35.70
19248;DHT22;9758;48.640;8.148;2022-08-03T00:53:24;25.70;35.70
19248;DHT22;9758;48.640;8.148;2022-08-03T00:55:52;25.70;35.80
19248;DHT22;9758;48.640;8.148;2022-08-03T00:58:19;25.70;35.80
19248;DHT22;9758;48.640;8.148;2022-08-03T01:00:47;25.70;35.80
19248;DHT22;9758;48.640;8.148;2022-08-03T01:03:13;25.60;35.80
19248;DHT22;9758;48.640;8.148;2022-08-03T01:05:51;25.60;35.80
19248;DHT22;9758;48.640;8.148;2022-08-03T01:08:22;25.60;35.90
19248;DHT22;9758;48.640;8.148;2022-08-03T01:10:57;25.60;35.90
19248;DHT22;9758;48.640;8.148;2022-08-03T01:13:40;25.60;35.90
19248;DHT22;9758;48.640;8.148;2022-08-03T01:16:14;25.50;35.90
19248;DHT22;9758;48.640;8.148;2022-08-03T01:18:46;25.50;35.90
19248;DHT22;9758;48.640;8.148;2022-08-03T01:21:20;25.50;36.00
19248;DHT22;9758;48.640;8.148;2022-08-03T01:24:15;25.50;36.00
19248;DHT22;9758;48.640;8.148;2022-08-03T01:26:58;25.50;36.10
19248;DHT22;9758;48.640;8.148;2022-08-03T01:29:56;25.40;36.00
19248;DHT22;9758;48.640;8.148;2022-08-03T01:32:30;25.40;36.10
19248;DHT22;9758;48.640;8.148;2022-08-03T01:35:03;25.40;36.00
19248;DHT22;9758;48.640;8.148;2022-08-03T01:37:36;25.40;36.00
19248;DHT22;9758;48.640;8.148;2022-08-03T01:40:05;25.40;36.10
19248;DHT22;9758;48.640;8.148;2022-08-03T01:42:33;25.30;36.00
19248;DHT22;9758;48.640;8.148;2022-08-03T01:45:04;25.30;36.10
19248;DHT22;9758;48.640;8.148;2022-08-03T01:47:33;25.30;36.10
19248;DHT22;9758;48.640;8.148;2022-08-03T01:50:02;25.30;36.10
19248;DHT22;9758;48.640;8.148;2022-08-03T01:52:29;25.30;36.20
19248;DHT22;9758;48.640;8.148;2022-08-03T01:54:58;25.20;36.20
19248;DHT22;9758;48.640;8.148;2022-08-03T01:57:28;25.20;36.20
19248;DHT22;9758;48.640;8.148;2022-08-03T01:59:56;25.20;36.20
19248;DHT22;9758;48.640;8.148;2022-08-03T02:02:27;25.20;36.20
19248;DHT22;9758;48.640;8.148;2022-08-03T02:04:56;25.20;36.20
19248;DHT22;9758;48.640;8.148;2022-08-03T02:07:25;25.20;36.30
19248;DHT22;9758;48.640;8.148;2022-08-03T02:09:53;25.20;36.30
19248;DHT22;9758;48.640;8.148;2022-08-03T02:12:22;25.20;36.30
19248;DHT22;9758;48.640;8.148;2022-08-03T02:14:50;25.20;36.40
19248;DHT22;9758;48.640;8.148;2022-08-03T02:17:20;25.10;36.30
19248;DHT22;9758;48.640;8.148;2022-08-03T02:19:51;25.10;36.40
19248;DHT22;9758;48.640;8.148;2022-08-03T02:22:21;25.10;36.40
19248;DHT22;9758;48.640;8.148;2022-08-03T02:24:49;25.10;36.40
19248;DHT22;9758;48.640;8.148;2022-08-03T02:27:19;25.10;36.50
19248;DHT22;9758;48.640;8.148;2022-08-03T02:29:50;25.00;36.40
19248;DHT22;9758;48.640;8.148;2022-08-03T02:32:20;25.00;36.50
19248;DHT22;9758;48.640;8.148;2022-08-03T02:34:52;25.00;36.50
19248;DHT22;9758;48.640;8.148;2022-08-03T02:37:24;25.00;36.60
19248;DHT22;9758;48.640;8.148;2022-08-03T02:39:57;25.00;36.60
19248;DHT22;9758;48.640;8.148;2022-08-03T02:42:26;24.90;36.60
19248;DHT22;9758;48.640;8.148;2022-08-03T02:44:56;24.90;36.60
19248;DHT22;9758;48.640;8.148;2022-08-03T02:47:25;24.90;36.60
19248;DHT22;9758;48.640;8.148;2022-08-03T02:49:56;24.80;36.60
19248;DHT22;9758;48.640;8.148;2022-08-03T02:52:27;24.80;36.60
19248;DHT22;9758;48.640;8.148;2022-08-03T02:54:58;24.80;36.60
19248;DHT22;9758;48.640;8.148;2022-08-03T02:57:27;24.80;36.70
19248;DHT22;9758;48.640;8.148;2022-08-03T02:59:56;24.80;36.70
19248;DHT22;9758;48.640;8.148;2022-08-03T03:02:24;24.80;36.70
19248;DHT22;9758;48.640;8.148;2022-08-03T03:04:56;24.80;36.70
19248;DHT22;9758;48.640;8.148;2022-08-03T03:07:25;24.80;36.70
19248;DHT22;9758;48.640;8.148;2022-08-03T03:09:54;24.80;36.80
19248;DHT22;9758;48.640;8.148;2022-08-03T03:12:21;24.80;36.90
19248;DHT22;9758;48.640;8.148;2022-08-03T03:14:49;24.80;36.80
19248;DHT22;9758;48.640;8.148;2022-08-03T03:20:14;24.70;37.00
19248;DHT22;9758;48.640;8.148;2022-08-03T03:22:42;24.70;37.50
19248;DHT22;9758;48.640;8.148;2022-08-03T03:25:10;24.70;36.90
19248;DHT22;9758;48.640;8.148;2022-08-03T03:27:38;24.70;37.00
19248;DHT22;9758;48.640;8.148;2022-08-03T03:30:06;24.70;36.90
19248;DHT22;9758;48.640;8.148;2022-08-03T03:32:34;24.60;36.90
19248;DHT22;9758;48.640;8.148;2022-08-03T03:35:01;24.60;37.00
19248;DHT22;9758;48.640;8.148;2022-08-03T03:37:32;24.60;37.00
19248;DHT22;9758;48.640;8.148;2022-08-03T03:39:59;24.60;37.00
19248;DHT22;9758;48.640;8.148;2022-08-03T03:42:26;24.60;37.00
19248;DHT22;9758;48.640;8.148;2022-08-03T03:44:53;24.60;37.10
19248;DHT22;9758;48.640;8.148;2022-08-03T03:47:21;24.60;37.10
19248;DHT22;9758;48.640;8.148;2022-08-03T03:49:48;24.60;37.10
19248;DHT22;9758;48.640;8.148;2022-08-03T03:52:15;24.60;37.10
19248;DHT22;9758;48.640;8.148;2022-08-03T03:54:44;24.60;37.10
19248;DHT22;9758;48.640;8.148;2022-08-03T03:57:11;24.60;37.20
19248;DHT22;9758;48.640;8.148;2022-08-03T03:59:41;24.60;37.20
19248;DHT22;9758;48.640;8.148;2022-08-03T04:02:09;24.60;37.20
19248;DHT22;9758;48.640;8.148;2022-08-03T04:04:37;24.60;37.20
19248;DHT22;9758;48.640;8.148;2022-08-03T04:07:22;24.60;37.20
19248;DHT22;9758;48.640;8.148;2022-08-03T04:10:12;24.60;37.30
19248;DHT22;9758;48.640;8.148;2022-08-03T04:12:59;24.60;37.30
19248;DHT22;9758;48.640;8.148;2022-08-03T04:15:28;24.60;37.30
19248;DHT22;9758;48.640;8.148;2022-08-03T04:17:58;24.60;37.30
19248;DHT22;9758;48.640;8.148;2022-08-03T04:20:28;24.60;37.40
19248;DHT22;9758;48.640;8.148;2022-08-03T04:22:57;24.60;37.40
19248;DHT22;9758;48.640;8.148;2022-08-03T04:25:32;24.60;37.40
19248;DHT22;9758;48.640;8.148;2022-08-03T04:28:00;24.60;37.40
19248;DHT22;9758;48.640;8.148;2022-08-03T04:30:30;24.50;37.40
19248;DHT22;9758;48.640;8.148;2022-08-03T04:32:59;24.60;37.50
19248;DHT22;9758;48.640;8.148;2022-08-03T04:35:28;24.60;37.50
19248;DHT22;9758;48.640;8.148;2022-08-03T04:38:01;24.60;37.50
19248;DHT22;9758;48.640;8.148;2022-08-03T04:40:33;24.60;37.50
19248;DHT22;9758;48.640;8.148;2022-08-03T04:43:01;24.60;37.50
19248;DHT22;9758;48.640;8.148;2022-08-03T04:45:29;24.60;37.50
19248;DHT22;9758;48.640;8.148;2022-08-03T04:47:57;24.60;37.50
19248;DHT22;9758;48.640;8.148;2022-08-03T04:50:26;24.60;37.60
19248;DHT22;9758;48.640;8.148;2022-08-03T04:52:54;24.60;37.60
19248;DHT22;9758;48.640;8.148;2022-08-03T04:55:25;24.60;37.60
19248;DHT22;9758;48.640;8.148;2022-08-03T04:57:54;24.60;37.60
19248;DHT22;9758;48.640;8.148;2022-08-03T05:00:22;24.60;37.60
19248;DHT22;9758;48.640;8.148;2022-08-03T05:02:49;24.60;37.60
19248;DHT22;9758;48.640;8.148;2022-08-03T05:05:16;24.70;37.70
19248;DHT22;9758;48.640;8.148;2022-08-03T05:07:43;24.70;37.70
19248;DHT22;9758;48.640;8.148;2022-08-03T05:10:11;24.70;37.70
19248;DHT22;9758;48.640;8.148;2022-08-03T05:12:39;24.70;37.70
19248;DHT22;9758;48.640;8.148;2022-08-03T05:15:08;24.70;37.70
19248;DHT22;9758;48.640;8.148;2022-08-03T05:17:35;24.80;37.80
19248;DHT22;9758;48.640;8.148;2022-08-03T05:20:03;24.80;37.80
19248;DHT22;9758;48.640;8.148;2022-08-03T05:22:30;24.80;37.90
19248;DHT22;9758;48.640;8.148;2022-08-03T05:24:57;24.80;37.80
19248;DHT22;9758;48.640;8.148;2022-08-03T05:27:24;24.80;37.90
19248;DHT22;9758;48.640;8.148;2022-08-03T05:29:51;24.80;37.90
19248;DHT22;9758;48.640;8.148;2022-08-03T05:32:20;24.80;38.00
19248;DHT22;9758;48.640;8.148;2022-08-03T05:34:48;24.80;37.90
19248;DHT22;9758;48.640;8.148;2022-08-03T05:37:16;24.80;37.90
19248;DHT22;9758;48.640;8.148;2022-08-03T05:39:44;24.80;38.10
19248;DHT22;9758;48.640;8.148;2022-08-03T05:42:10;24.70;38.10
19248;DHT22;9758;48.640;8.148;2022-08-03T05:44:40;24.70;38.10
19248;DHT22;9758;48.640;8.148;2022-08-03T05:47:07;24.70;38.20
19248;DHT22;9758;48.640;8.148;2022-08-03T05:49:37;24.70;38.20
19248;DHT22;9758;48.640;8.148;2022-08-03T05:52:05;24.70;38.20
19248;DHT22;9758;48.640;8.148;2022-08-03T05:54:32;24.70;38.30
19248;DHT22;9758;48.640;8.148;2022-08-03T05:57:15;24.70;38.30
19248;DHT22;9758;48.640;8.148;2022-08-03T05:59:42;24.70;38.60
19248;DHT22;9758;48.640;8.148;2022-08-03T06:02:09;24.80;38.50
19248;DHT22;9758;48.640;8.148;2022-08-03T06:04:37;24.80;38.50
19248;DHT22;9758;48.640;8.148;2022-08-03T06:07:04;24.80;38.60
19248;DHT22;9758;48.640;8.148;2022-08-03T06:09:31;24.80;38.60
19248;DHT22;9758;48.640;8.148;2022-08-03T06:11:58;24.80;38.60
19248;DHT22;9758;48.640;8.148;2022-08-03T06:14:25;24.90;38.60
19248;DHT22;9758;48.640;8.148;2022-08-03T06:16:52;24.90;38.60
19248;DHT22;9758;48.640;8.148;2022-08-03T06:19:20;25.00;38.70
19248;DHT22;9758;48.640;8.148;2022-08-03T06:21:49;25.10;38.70
19248;DHT22;9758;48.640;8.148;2022-08-03T06:24:16;25.10;38.70
19248;DHT22;9758;48.640;8.148;2022-08-03T06:26:43;25.20;38.70
19248;DHT22;9758;48.640;8.148;2022-08-03T06:29:11;25.30;38.70
19248;DHT22;9758;48.640;8.148;2022-08-03T06:31:52;25.30;38.60
19248;DHT22;9758;48.640;8.148;2022-08-03T06:34:32;25.40;38.60
19248;DHT22;9758;48.640;8.148;2022-08-03T06:40:17;25.40;38.60
19248;DHT22;9758;48.640;8.148;2022-08-03T06:45:49;25.60;38.60
19248;DHT22;9758;48.640;8.148;2022-08-03T06:48:16;25.70;38.60
19248;DHT22;9758;48.640;8.148;2022-08-03T06:51:01;25.70;38.60
19248;DHT22;9758;48.640;8.148;2022-08-03T06:53:42;25.80;38.60
19248;DHT22;9758;48.640;8.148;2022-08-03T07:02:35;26.00;38.70
19248;DHT22;9758;48.640;8.148;2022-08-03T07:05:02;26.00;38.60
19248;DHT22;9758;48.640;8.148;2022-08-03T07:07:44;26.00;38.60
19248;DHT22;9758;48.640;8.148;2022-08-03T07:10:11;26.10;38.70
19248;DHT22;9758;48.640;8.148;2022-08-03T07:12:38;26.20;38.70
19248;DHT22;9758;48.640;8.148;2022-08-03T07:15:09;26.30;38.70
19248;DHT22;9758;48.640;8.148;2022-08-03T07:17:37;26.30;38.60
19248;DHT22;9758;48.640;8.148;2022-08-03T07:20:06;26.40;38.70
19248;DHT22;9758;48.640;8.148;2022-08-03T07:22:38;26.50;38.60
19248;DHT22;9758;48.640;8.148;2022-08-03T07:25:05;26.60;38.60
19248;DHT22;9758;48.640;8.148;2022-08-03T07:27:32;26.60;38.60
19248;DHT22;9758;48.640;8.148;2022-08-03T07:30:00;26.70;38.60
19248;DHT22;9758;48.640;8.148;2022-08-03T07:32:27;26.80;38.50
19248;DHT22;9758;48.640;8.148;2022-08-03T07:34:58;26.80;38.50
19248;DHT22;9758;48.640;8.148;2022-08-03T07:37:25;26.80;38.50
19248;DHT22;9758;48.640;8.148;2022-08-03T07:39:53;26.90;38.50
19248;DHT22;9758;48.640;8.148;2022-08-03T07:42:20;27.00;38.50
19248;DHT22;9758;48.640;8.148;2022-08-03T07:44:48;27.00;38.50
19248;DHT22;9758;48.640;8.148;2022-08-03T07:47:17;27.10;38.50
19248;DHT22;9758;48.640;8.148;2022-08-03T07:49:44;27.20;38.50
19248;DHT22;9758;48.640;8.148;2022-08-03T07:52:13;27.30;38.60
19248;DHT22;9758;48.640;8.148;2022-08-03T07:54:59;27.30;38.50
19248;DHT22;9758;48.640;8.148;2022-08-03T07:58:02;27.40;38.40
19248;DHT22;9758;48.640;8.148;2022-08-03T08:00:29;27.50;38.40
19248;DHT22;9758;48.640;8.148;2022-08-03T08:03:11;27.60;38.40
19248;DHT22;9758;48.640;8.148;2022-08-03T08:05:54;27.60;38.30
19248;DHT22;9758;48.640;8.148;2022-08-03T08:08:22;27.70;38.40
19248;DHT22;9758;48.640;8.148;2022-08-03T08:10:49;27.80;38.30
19248;DHT22;9758;48.640;8.148;2022-08-03T08:13:17;27.80;38.30
19248;DHT22;9758;48.640;8.148;2022-08-03T08:16:02;27.90;38.30
19248;DHT22;9758;48.640;8.148;2022-08-03T08:18:29;28.00;38.40
19248;DHT22;9758;48.640;8.148;2022-08-03T08:20:57;28.00;38.30
19248;DHT22;9758;48.640;8.148;2022-08-03T08:23:27;28.10;38.30
19248;DHT22;9758;48.640;8.148;2022-08-03T08:25:56;28.20;38.30
19248;DHT22;9758;48.640;8.148;2022-08-03T08:28:27;28.20;38.20
19248;DHT22;9758;48.640;8.148;2022-08-03T08:30:54;28.30;38.20
19248;DHT22;9758;48.640;8.148;2022-08-03T08:33:22;28.30;38.20
19248;DHT22;9758;48.640;8.148;2022-08-03T08:35:57;28.40;38.20
19248;DHT22;9758;48.640;8.148;2022-08-03T08:41:43;28.50;38.20
19248;DHT22;9758;48.640;8.148;2022-08-03T08:44:10;28.50;38.00
19248;DHT22;9758;48.640;8.148;2022-08-03T08:46:37;28.60;38.10
19248;DHT22;9758;48.640;8.148;2022-08-03T08:49:05;28.60;38.10
19248;DHT22;9758;48.640;8.148;2022-08-03T08:51:33;28.60;38.10
19248;DHT22;9758;48.640;8.148;2022-08-03T08:54:02;28.70;38.10
19248;DHT22;9758;48.640;8.148;2022-08-03T08:56:32;28.70;38.10
19248;DHT22;9758;48.640;8.148;2022-08-03T08:59:03;28.80;38.10
19248;DHT22;9758;48.640;8.148;2022-08-03T09:01:30;28.90;38.00
19248;DHT22;9758;48.640;8.148;2022-08-03T09:03:57;28.90;38.00
19248;DHT22;9758;48.640;8.148;2022-08-03T09:06:25;29.00;38.00
19248;DHT22;9758;48.640;8.148;2022-08-03T09:09:06;29.00;37.90
19248;DHT22;9758;48.640;8.148;2022-08-03T09:11:33;29.10;37.90
19248;DHT22;9758;48.640;8.148;2022-08-03T09:14:02;29.10;37.90
19248;DHT22;9758;48.640;8.148;2022-08-03T09:16:29;29.20;37.90
19248;DHT22;9758;48.640;8.148;2022-08-03T09:19:10;29.20;37.80
19248;DHT22;9758;48.640;8.148;2022-08-03T09:21:38;29.30;37.80
19248;DHT22;9758;48.640;8.148;2022-08-03T09:24:05;29.30;37.60
19248;DHT22;9758;48.640;8.148;2022-08-03T09:26:34;29.30;37.60
19248;DHT22;9758;48.640;8.148;2022-08-03T09:29:21;29.50;37.70
19248;DHT22;9758;48.640;8.148;2022-08-03T09:31:48;29.50;37.60
19248;DHT22;9758;48.640;8.148;2022-08-03T09:34:16;29.60;37.60
19248;DHT22;9758;48.640;8.148;2022-08-03T09:36:48;29.70;37.50
19248;DHT22;9758;48.640;8.148;2022-08-03T09:39:20;29.70;37.50
19248;DHT22;9758;48.640;8.148;2022-08-03T09:42:03;29.80;37.50
19248;DHT22;9758;48.640;8.148;2022-08-03T09:44:47;29.80;37.40
19248;DHT22;9758;48.640;8.148;2022-08-03T09:47:16;29.90;38.00
19248;DHT22;9758;48.640;8.148;2022-08-03T09:50:26;29.90;37.30
19248;DHT22;9758;48.640;8.148;2022-08-03T09:53:01;30.10;37.30
19248;DHT22;9758;48.640;8.148;2022-08-03T09:55:50;30.10;37.10
19248;DHT22;9758;48.640;8.148;2022-08-03T09:58:17;30.10;37.00
19248;DHT22;9758;48.640;8.148;2022-08-03T10:00:55;30.20;37.10
19248;DHT22;9758;48.640;8.148;2022-08-03T10:03:24;30.20;37.00
19248;DHT22;9758;48.640;8.148;2022-08-03T10:05:51;30.30;37.00
19248;DHT22;9758;48.640;8.148;2022-08-03T10:08:20;30.40;37.00
19248;DHT22;9758;48.640;8.148;2022-08-03T10:10:48;30.50;37.00
19248;DHT22;9758;48.640;8.148;2022-08-03T10:13:19;30.50;37.50
19248;DHT22;9758;48.640;8.148;2022-08-03T10:15:47;30.60;36.90
19248;DHT22;9758;48.640;8.148;2022-08-03T10:18:16;30.70;36.90
19248;DHT22;9758;48.640;8.148;2022-08-03T10:20:48;30.80;36.80
19248;DHT22;9758;48.640;8.148;2022-08-03T10:23:17;30.90;36.80
19248;DHT22;9758;48.640;8.148;2022-08-03T10:25:46;31.00;36.70
19248;DHT22;9758;48.640;8.148;2022-08-03T10:28:16;31.10;36.70
19248;DHT22;9758;48.640;8.148;2022-08-03T10:30:48;31.20;36.70
19248;DHT22;9758;48.640;8.148;2022-08-03T10:33:19;31.20;36.60
19248;DHT22;9758;48.640;8.148;2022-08-03T10:35:51;31.30;36.60
19248;DHT22;9758;48.640;8.148;2022-08-03T10:38:22;31.40;36.50
19248;DHT22;9758;48.640;8.148;2022-08-03T10:40:53;31.50;36.40
19248;DHT22;9758;48.640;8.148;2022-08-03T10:43:27;31.50;36.40
19248;DHT22;9758;48.640;8.148;2022-08-03T10:45:55;31.50;36.30
19248;DHT22;9758;48.640;8.148;2022-08-03T10:48:24;31.60;36.30
19248;DHT22;9758;48.640;8.148;2022-08-03T10:50:52;31.70;36.20
19248;DHT22;9758;48.640;8.148;2022-08-03T10:53:33;31.80;36.20
19248;DHT22;9758;48.640;8.148;2022-08-03T10:56:39;31.80;36.10
19248;DHT22;9758;48.640;8.148;2022-08-03T10:59:55;31.90;36.00
19248;DHT22;9758;48.640;8.148;2022-08-03T11:05:35;32.00;35.80
19248;DHT22;9758;48.640;8.148;2022-08-03T11:08:18;32.00;35.80
19248;DHT22;9758;48.640;8.148;2022-08-03T11:10:46;32.00;35.80
19248;DHT22;9758;48.640;8.148;2022-08-03T11:13:15;32.00;35.80
19248;DHT22;9758;48.640;8.148;2022-08-03T11:15:45;32.10;35.80
19248;DHT22;9758;48.640;8.148;2022-08-03T11:18:13;32.10;35.80
19248;DHT22;9758;48.640;8.148;2022-08-03T11:20:47;32.20;35.80
19248;DHT22;9758;48.640;8.148;2022-08-03T11:23:16;32.20;35.80
19248;DHT22;9758;48.640;8.148;2022-08-03T11:26:12;32.30;35.70
19248;DHT22;9758;48.640;8.148;2022-08-03T11:28:40;32.30;35.50
19248;DHT22;9758;48.640;8.148;2022-08-03T11:31:44;32.40;35.70
19248;DHT22;9758;48.640;8.148;2022-08-03T11:34:15;32.40;35.60
19248;DHT22;9758;48.640;8.148;2022-08-03T11:37:22;32.40;35.50
19248;DHT22;9758;48.640;8.148;2022-08-03T11:39:51;32.50;35.40
19248;DHT22;9758;48.640;8.148;2022-08-03T11:42:43;32.50;35.40
19248;DHT22;9758;48.640;8.148;2022-08-03T11:45:11;32.60;35.40
19248;DHT22;9758;48.640;8.148;2022-08-03T11:47:58;32.70;35.40
19248;DHT22;9758;48.640;8.148;2022-08-03T11:50:42;32.70;35.20
19248;DHT22;9758;48.640;8.148;2022-08-03T11:53:15;32.80;35.30
19248;DHT22;9758;48.640;8.148;2022-08-03T11:55:44;32.90;35.30
19248;DHT22;9758;48.640;8.148;2022-08-03T11:58:17;33.00;35.20
19248;DHT22;9758;48.640;8.148;2022-08-03T12:00:45;33.00;35.20
19248;DHT22;9758;48.640;8.148;2022-08-03T12:03:13;33.00;35.10
19248;DHT22;9758;48.640;8.148;2022-08-03T12:05:44;33.10;35.00
19248;DHT22;9758;48.640;8.148;2022-08-03T12:08:14;33.10;35.70
19248;DHT22;9758;48.640;8.148;2022-08-03T12:10:47;33.20;35.10
19248;DHT22;9758;48.640;8.148;2022-08-03T12:13:14;33.20;35.00
19248;DHT22;9758;48.640;8.148;2022-08-03T12:15:41;33.30;35.00
19248;DHT22;9758;48.640;8.148;2022-08-03T12:18:13;33.30;35.00
19248;DHT22;9758;48.640;8.148;2022-08-03T12:20:42;33.50;35.00
19248;DHT22;9758;48.640;8.148;2022-08-03T12:23:10;33.50;34.90
19248;DHT22;9758;48.640;8.148;2022-08-03T12:25:41;33.60;34.80
19248;DHT22;9758;48.640;8.148;2022-08-03T12:28:11;33.70;34.70
19248;DHT22;9758;48.640;8.148;2022-08-03T12:30:41;33.70;34.70
19248;DHT22;9758;48.640;8.148;2022-08-03T12:33:16;33.80;34.70
19248;DHT22;9758;48.640;8.148;2022-08-03T12:35:44;33.80;34.50
19248;DHT22;9758;48.640;8.148;2022-08-03T12:38:18;33.90;34.50
19248;DHT22;9758;48.640;8.148;2022-08-03T12:40:56;33.90;34.50
19248;DHT22;9758;48.640;8.148;2022-08-03T12:43:23;34.00;34.50
19248;DHT22;9758;48.640;8.148;2022-08-03T12:45:51;34.00;34.50
19248;DHT22;9758;48.640;8.148;2022-08-03T12:48:19;34.10;34.50
19248;DHT22;9758;48.640;8.148;2022-08-03T12:50:46;34.20;34.40
19248;DHT22;9758;48.640;8.148;2022-08-03T12:53:28;34.20;34.30
19248;DHT22;9758;48.640;8.148;2022-08-03T12:56:02;34.20;34.20
19248;DHT22;9758;48.640;8.148;2022-08-03T12:58:30;34.30;34.20
19248;DHT22;9758;48.640;8.148;2022-08-03T13:00:59;34.40;34.20
19248;DHT22;9758;48.640;8.148;2022-08-03T13:03:25;34.40;34.20
19248;DHT22;9758;48.640;8.148;2022-08-03T13:05:52;34.40;34.20
19248;DHT22;9758;48.640;8.148;2022-08-03T13:08:21;34.50;34.10
19248;DHT22;9758;48.640;8.148;2022-08-03T13:10:48;34.60;34.10
19248;DHT22;9758;48.640;8.148;2022-08-03T13:13:16;34.70;34.10
19248;DHT22;9758;48.640;8.148;2022-08-03T13:15:45;34.70;33.90
19248;DHT22;9758;48.640;8.148;2022-08-03T13:18:11;34.80;33.90
19248;DHT22;9758;48.640;8.148;2022-08-03T13:20:39;34.90;33.90
19248;DHT22;9758;48.640;8.148;2022-08-03T13:23:10;34.90;33.70
19248;DHT22;9758;48.640;8.148;2022-08-03T13:25:36;35.00;33.80
19248;DHT22;9758;48.640;8.148;2022-08-03T13:28:03;34.90;33.60
19248;DHT22;9758;48.640;8.148;2022-08-03T13:30:35;35.00;33.70
19248;DHT22;9758;48.640;8.148;2022-08-03T13:33:03;35.00;33.70
19248;DHT22;9758;48.640;8.148;2022-08-03T13:35:34;35.10;33.60
19248;DHT22;9758;48.640;8.148;2022-08-03T13:38:14;35.20;33.60
19248;DHT22;9758;48.640;8.148;2022-08-03T13:40:41;35.20;33.50
19248;DHT22;9758;48.640;8.148;2022-08-03T13:43:08;35.30;33.50
19248;DHT22;9758;48.640;8.148;2022-08-03T13:45:36;35.30;33.40
19248;DHT22;9758;48.640;8.148;2022-08-03T13:48:04;35.30;33.30
19248;DHT22;9758;48.640;8.148;2022-08-03T13:50:31;35.40;33.30
19248;DHT22;9758;48.640;8.148;2022-08-03T13:53:00;35.50;33.30
19248;DHT22;9758;48.640;8.148;2022-08-03T13:55:27;35.40;33.20
19248;DHT22;9758;48.640;8.148;2022-08-03T13:57:54;35.50;33.30
19248;DHT22;9758;48.640;8.148;2022-08-03T14:00:21;35.60;33.20
19248;DHT22;9758;48.640;8.148;2022-08-03T14:02:52;35.60;33.20
19248;DHT22;9758;48.640;8.148;2022-08-03T14:05:27;35.70;33.20
19248;DHT22;9758;48.640;8.148;2022-08-03T14:08:03;35.70;33.10
19248;DHT22;9758;48.640;8.148;2022-08-03T14:10:39;35.80;32.90
19248;DHT22;9758;48.640;8.148;2022-08-03T14:13:07;35.90;32.90
19248;DHT22;9758;48.640;8.148;2022-08-03T14:15:34;35.90;32.90
19248;DHT22;9758;48.640;8.148;2022-08-03T14:18:02;36.00;32.90
19248;DHT22;9758;48.640;8.148;2022-08-03T14:20:29;35.90;32.70
19248;DHT22;9758;48.640;8.148;2022-08-03T14:22:58;36.00;33.20
19248;DHT22;9758;48.640;8.148;2022-08-03T14:25:24;36.00;32.70
19248;DHT22;9758;48.640;8.148;2022-08-03T14:27:51;36.00;32.60
19248;DHT22;9758;48.640;8.148;2022-08-03T14:30:18;36.00;32.50
19248;DHT22;9758;48.640;8.148;2022-08-03T14:32:45;36.00;32.50
19248;DHT22;9758;48.640;8.148;2022-08-03T14:35:14;36.00;32.50
19248;DHT22;9758;48.640;8.148;2022-08-03T14:37:40;36.00;32.60
19248;DHT22;9758;48.640;8.148;2022-08-03T14:40:08;36.00;32.50
19248;DHT22;9758;48.640;8.148;2022-08-03T14:42:36;36.00;32.40
19248;DHT22;9758;48.640;8.148;2022-08-03T14:45:03;36.10;32.50
19248;DHT22;9758;48.640;8.148;2022-08-03T14:47:30;36.10;32.50
19248;DHT22;9758;48.640;8.148;2022-08-03T14:49:57;36.20;32.40
19248;DHT22;9758;48.640;8.148;2022-08-03T14:52:26;36.20;32.20
19248;DHT22;9758;48.640;8.148;2022-08-03T14:54:52;36.20;32.30
19248;DHT22;9758;48.640;8.148;2022-08-03T14:57:20;36.20;33.00
19248;DHT22;9758;48.640;8.148;2022-08-03T15:00:01;36.30;32.20
19248;DHT22;9758;48.640;8.148;2022-08-03T15:02:29;36.30;32.10
19248;DHT22;9758;48.640;8.148;2022-08-03T15:04:57;36.30;32.20
19248;DHT22;9758;48.640;8.148;2022-08-03T15:07:25;36.40;32.20
19248;DHT22;9758;48.640;8.148;2022-08-03T15:09:52;36.50;32.10
19248;DHT22;9758;48.640;8.148;2022-08-03T15:12:19;36.50;31.80
19248;DHT22;9758;48.640;8.148;2022-08-03T15:14:47;36.60;31.80
19248;DHT22;9758;48.640;8.148;2022-08-03T15:17:14;36.60;31.70
19248;DHT22;9758;48.640;8.148;2022-08-03T15:19:40;36.50;31.70
19248;DHT22;9758;48.640;8.148;2022-08-03T15:22:07;36.60;31.80
19248;DHT22;9758;48.640;8.148;2022-08-03T15:24:38;36.60;31.70
19248;DHT22;9758;48.640;8.148;2022-08-03T15:27:04;36.80;32.10
19248;DHT22;9758;48.640;8.148;2022-08-03T15:29:31;37.20;32.50
19248;DHT22;9758;48.640;8.148;2022-08-03T15:31:58;37.90;32.70
19248;DHT22;9758;48.640;8.148;2022-08-03T15:34:25;39.00;32.50
19248;DHT22;9758;48.640;8.148;2022-08-03T15:36:51;40.20;32.60
19248;DHT22;9758;48.640;8.148;2022-08-03T15:39:18;41.60;31.10
19248;DHT22;9758;48.640;8.148;2022-08-03T15:41:46;42.80;30.00
19248;DHT22;9758;48.640;8.148;2022-08-03T15:44:17;43.90;29.70
19248;DHT22;9758;48.640;8.148;2022-08-03T15:46:44;45.00;29.40
19248;DHT22;9758;48.640;8.148;2022-08-03T15:49:12;45.90;28.60
19248;DHT22;9758;48.640;8.148;2022-08-03T15:51:38;46.70;28.40
19248;DHT22;9758;48.640;8.148;2022-08-03T15:54:06;47.50;28.20
19248;DHT22;9758;48.640;8.148;2022-08-03T15:56:32;48.20;28.00
19248;DHT22;9758;48.640;8.148;2022-08-03T15:59:00;48.90;27.70
19248;DHT22;9758;48.640;8.148;2022-08-03T16:01:28;49.40;27.40
19248;DHT22;9758;48.640;8.148;2022-08-03T16:03:55;49.90;27.20
19248;DHT22;9758;48.640;8.148;2022-08-03T16:06:22;50.30;27.00
19248;DHT22;9758;48.640;8.148;2022-08-03T16:08:49;50.70;26.90
19248;DHT22;9758;48.640;8.148;2022-08-03T16:11:16;51.00;26.60
19248;DHT22;9758;48.640;8.148;2022-08-03T16:13:42;51.20;26.60
19248;DHT22;9758;48.640;8.148;2022-08-03T16:16:20;51.50;26.50
19248;DHT22;9758;48.640;8.148;2022-08-03T16:18:46;51.60;26.30
19248;DHT22;9758;48.640;8.148;2022-08-03T16:21:13;51.80;26.30
19248;DHT22;9758;48.640;8.148;2022-08-03T16:23:40;51.90;26.20
19248;DHT22;9758;48.640;8.148;2022-08-03T16:26:07;52.00;26.40
19248;DHT22;9758;48.640;8.148;2022-08-03T16:28:33;52.00;26.20